Time;durP1;ratioP1;P1;durP2;ratioP2;P2;SDS_P1;SDS_P2;PMS_P1;PMS_P2;Temp;Humidity;BMP_temperature;BMP_pressure;BME280_temperature;BME280_humidity;BME280_pressure;Samples;Min_cycle;Max_cycle;Signal;HPM_P1;HPM_P2
2021/09/13 00:01:20;;;;;;;20.85;16.50;;;15.50;99.90;;;;;;5020963;28;20022;-80
2021/09/13 00:03:46;;;;;;;20.80;17.67;;;15.40;99.90;;;;;;5019456;28;20053;-80
2021/09/13 00:06:11;;;;;;;26.05;17.35;;;15.40;99.90;;;;;;5020377;28;20026;-80
2021/09/13 00:08:37;;;;;;;23.25;17.52;;;15.40;99.90;;;;;;5019734;28;20084;-80
2021/09/13 00:11:03;;;;;;;23.92;17.80;;;15.40;99.90;;;;;;5021496;28;20344;-80
2021/09/13 00:13:28;;;;;;;22.02;18.42;;;15.40;99.90;;;;;;5020580;28;20053;-80
2021/09/13 00:15:54;;;;;;;24.27;18.73;;;15.40;99.90;;;;;;5020949;28;20026;-80
2021/09/13 00:18:20;;;;;;;23.33;18.25;;;15.40;99.90;;;;;;5019629;28;20029;-81
2021/09/13 00:20:45;;;;;;;21.60;17.55;;;15.40;99.90;;;;;;5018689;28;20021;-80
2021/09/13 00:23:11;;;;;;;30.75;19.25;;;15.30;99.90;;;;;;5017432;28;20042;-80
2021/09/13 00:25:37;;;;;;;24.90;18.48;;;15.40;99.90;;;;;;5018167;28;20025;-80
2021/09/13 00:28:02;;;;;;;25.77;19.35;;;15.50;99.90;;;;;;5018214;28;20030;-80
2021/09/13 00:30:28;;;;;;;24.23;18.98;;;15.40;99.90;;;;;;5018078;28;20026;-80
2021/09/13 00:32:54;;;;;;;27.83;18.80;;;15.40;99.90;;;;;;5018139;28;20018;-80
2021/09/13 00:35:20;;;;;;;24.55;18.98;;;15.50;99.90;;;;;;5019046;28;20075;-80
2021/09/13 00:37:45;;;;;;;28.38;20.27;;;15.50;99.90;;;;;;5017498;28;20089;-80
2021/09/13 00:40:12;;;;;;;28.83;19.48;;;15.50;99.90;;;;;;5018895;28;20495;-80
2021/09/13 00:42:37;;;;;;;21.30;18.10;;;15.40;99.90;;;;;;5018732;28;20022;-80
2021/09/13 00:45:04;;;;;;;29.67;20.02;;;15.20;99.90;;;;;;5019013;28;20076;-80
2021/09/13 00:47:29;;;;;;;24.25;18.17;;;15.30;99.90;;;;;;5020789;28;20368;-80
2021/09/13 00:49:55;;;;;;;25.35;19.73;;;15.30;99.90;;;;;;5019663;28;20144;-80
2021/09/13 00:52:22;;;;;;;27.63;20.95;;;15.40;99.90;;;;;;5019297;28;20383;-80
2021/09/13 00:54:48;;;;;;;26.88;20.13;;;15.40;99.90;;;;;;5019654;28;20022;-80
2021/09/13 00:57:14;;;;;;;28.10;20.90;;;15.30;99.90;;;;;;5020500;28;20033;-80
2021/09/13 00:59:40;;;;;;;28.05;20.67;;;15.20;99.90;;;;;;5020053;28;20113;-80
2021/09/13 01:02:06;;;;;;;23.92;19.48;;;15.30;99.90;;;;;;5019348;28;20058;-80
2021/09/13 01:04:31;;;;;;;25.52;19.88;;;15.10;99.90;;;;;;5019658;28;20021;-80
2021/09/13 01:06:57;;;;;;;29.73;21.35;;;15.10;99.90;;;;;;5018353;28;20021;-80
2021/09/13 01:09:23;;;;;;;33.75;25.42;;;15.30;99.90;;;;;;5020637;28;20030;-80
2021/09/13 01:11:49;;;;;;;35.60;25.00;;;15.30;99.90;;;;;;5018933;28;20483;-80
2021/09/13 01:14:17;;;;;;;34.90;24.58;;;15.20;99.90;;;;;;5019350;28;20014;-80
2021/09/13 01:16:43;;;;;;;34.10;24.42;;;15.10;99.90;;;;;;5020646;28;20025;-80
2021/09/13 01:19:08;;;;;;;30.48;24.02;;;15.10;99.90;;;;;;5020128;28;20022;-80
2021/09/13 01:21:38;;;;;;;27.90;23.23;;;14.90;99.90;;;;;;5018017;28;20453;-80
2021/09/13 01:24:04;;;;;;;35.10;25.08;;;14.90;99.90;;;;;;5018020;28;20026;-80
2021/09/13 01:26:30;;;;;;;34.85;26.08;;;14.90;99.90;;;;;;5017486;28;20022;-80
2021/09/13 01:28:56;;;;;;;32.70;25.65;;;14.80;99.90;;;;;;5017541;28;20497;-80
2021/09/13 01:31:22;;;;;;;33.88;25.02;;;14.90;99.90;;;;;;5019751;28;20026;-80
2021/09/13 01:33:48;;;;;;;26.75;22.20;;;14.80;99.90;;;;;;5017539;28;20052;-80
2021/09/13 01:36:13;;;;;;;32.58;24.92;;;14.80;99.90;;;;;;5016951;28;20478;-80
2021/09/13 01:38:39;;;;;;;37.17;26.55;;;14.90;99.90;;;;;;5018160;28;20073;-80
2021/09/13 01:41:05;;;;;;;31.70;25.95;;;14.80;99.90;;;;;;5018119;28;20033;-80
2021/09/13 01:43:31;;;;;;;34.25;25.08;;;14.80;99.90;;;;;;5017674;28;20018;-80
2021/09/13 01:45:56;;;;;;;34.05;24.20;;;14.80;99.90;;;;;;5017878;28;20080;-80
2021/09/13 01:48:23;;;;;;;31.92;23.70;;;14.70;99.90;;;;;;5018062;28;20076;-80
2021/09/13 01:50:49;;;;;;;31.35;22.45;;;14.70;99.90;;;;;;5017580;28;20048;-80
2021/09/13 01:53:14;;;;;;;29.92;22.63;;;14.60;99.90;;;;;;5016872;28;20536;-80
2021/09/13 01:55:40;;;;;;;30.63;23.38;;;14.60;99.90;;;;;;5017735;28;20030;-80
2021/09/13 01:58:06;;;;;;;29.60;22.70;;;14.60;99.90;;;;;;5017789;28;20022;-80
2021/09/13 02:00:31;;;;;;;35.55;25.35;;;14.60;99.90;;;;;;5017346;28;20064;-80
2021/09/13 02:02:57;;;;;;;36.50;25.77;;;14.70;99.90;;;;;;5017536;28;20036;-80
2021/09/13 02:05:23;;;;;;;32.72;24.33;;;14.80;99.90;;;;;;5017295;28;20026;-80
2021/09/13 02:07:48;;;;;;;30.92;25.02;;;14.80;99.90;;;;;;5016885;28;20540;-80
2021/09/13 02:10:14;;;;;;;31.13;24.10;;;14.70;99.90;;;;;;5016957;28;20030;-80
2021/09/13 02:12:40;;;;;;;32.40;24.58;;;14.60;99.90;;;;;;5016310;28;20080;-80
2021/09/13 02:15:06;;;;;;;29.63;23.63;;;14.60;99.90;;;;;;5016847;28;20036;-79
2021/09/13 02:17:32;;;;;;;30.15;23.55;;;14.60;99.90;;;;;;5018181;28;20479;-80
2021/09/13 02:19:58;;;;;;;30.88;23.17;;;14.50;99.90;;;;;;5020268;28;20033;-80
2021/09/13 02:22:23;;;;;;;29.45;23.20;;;14.50;99.90;;;;;;5021746;28;20040;-80
2021/09/13 02:24:49;;;;;;;30.20;23.45;;;14.40;99.90;;;;;;5022943;28;20113;-80
2021/09/13 02:27:14;;;;;;;29.50;23.58;;;14.40;99.90;;;;;;5021317;28;20093;-80
2021/09/13 02:29:40;;;;;;;30.45;23.38;;;14.60;99.90;;;;;;5020446;28;20034;-80
2021/09/13 02:32:06;;;;;;;29.77;22.17;;;14.50;99.90;;;;;;5020036;28;20026;-80
2021/09/13 02:34:32;;;;;;;30.55;23.17;;;14.60;99.90;;;;;;5020381;28;20030;-80
2021/09/13 02:36:58;;;;;;;30.38;22.90;;;14.70;99.90;;;;;;5021251;28;20022;-79
2021/09/13 02:39:23;;;;;;;31.95;24.13;;;14.60;99.90;;;;;;5020331;28;20021;-79
2021/09/13 02:41:49;;;;;;;32.42;24.90;;;14.80;99.90;;;;;;5019608;28;20030;-80
2021/09/13 02:44:15;;;;;;;30.30;24.38;;;14.80;99.90;;;;;;5019515;28;20026;-79
2021/09/13 02:46:41;;;;;;;33.72;24.17;;;14.70;99.90;;;;;;5021129;28;20033;-80
2021/09/13 02:49:06;;;;;;;35.55;23.70;;;14.60;99.90;;;;;;5019602;28;20030;-80
2021/09/13 02:51:32;;;;;;;31.38;23.33;;;14.60;99.90;;;;;;5019606;28;20029;-80
2021/09/13 02:53:57;;;;;;;35.45;24.35;;;14.50;99.90;;;;;;5020549;28;20065;-80
2021/09/13 02:56:23;;;;;;;35.50;24.25;;;14.40;99.90;;;;;;5021118;28;20486;-80
2021/09/13 02:58:49;;;;;;;34.08;23.77;;;14.40;99.90;;;;;;5020678;28;20026;-80
2021/09/13 03:01:14;;;;;;;37.00;25.13;;;14.40;99.90;;;;;;5019431;28;20454;-80
2021/09/13 03:03:42;;;;;;;36.28;24.38;;;14.50;99.90;;;;;;5019928;28;20153;-80
2021/09/13 03:06:09;;;;;;;31.90;23.55;;;14.50;99.90;;;;;;5018319;28;20414;-80
2021/09/13 03:08:35;;;;;;;33.20;22.40;;;14.40;99.90;;;;;;5018773;28;20030;-80
2021/09/13 03:11:03;;;;;;;34.33;24.15;;;14.40;99.90;;;;;;5019825;28;20022;-80
2021/09/13 03:13:28;;;;;;;35.70;25.67;;;14.50;99.90;;;;;;5019250;28;20026;-80
2021/09/13 03:15:54;;;;;;;39.08;27.63;;;14.50;99.90;;;;;;5020384;28;20164;-80
2021/09/13 03:18:19;;;;;;;43.10;30.25;;;14.50;99.90;;;;;;5019095;28;20153;-79
2021/09/13 03:20:45;;;;;;;41.28;29.77;;;14.50;99.90;;;;;;5019832;28;20006;-80
2021/09/13 03:23:12;;;;;;;43.15;29.92;;;14.50;99.90;;;;;;5019171;28;20029;-80
2021/09/13 03:25:37;;;;;;;42.80;28.17;;;14.40;99.90;;;;;;5002773;28;20036;-80
2021/09/13 03:28:04;;;;;;;41.35;29.02;;;14.30;99.90;;;;;;5019024;28;20120;-80
2021/09/13 03:30:30;;;;;;;37.40;28.50;;;14.20;99.90;;;;;;5019147;28;20030;-80
2021/09/13 03:32:55;;;;;;;35.10;28.27;;;14.10;99.90;;;;;;5019181;28;20022;-79
2021/09/13 03:35:21;;;;;;;38.17;28.83;;;14.10;99.90;;;;;;5020948;28;20029;-79
2021/09/13 03:37:46;;;;;;;38.75;28.40;;;14.10;99.90;;;;;;5018561;28;20022;-79
2021/09/13 03:40:13;;;;;;;37.40;28.15;;;14.10;99.90;;;;;;5017521;28;20037;-79
2021/09/13 03:42:38;;;;;;;38.70;29.27;;;14.10;99.90;;;;;;5016375;28;20040;-79
2021/09/13 03:45:05;;;;;;;34.85;28.35;;;14.00;99.90;;;;;;5017368;28;20093;-80
2021/09/13 03:47:30;;;;;;;39.45;28.73;;;14.00;99.90;;;;;;5019066;28;20018;-80
2021/09/13 03:49:56;;;;;;;38.92;29.40;;;14.10;99.90;;;;;;5020320;28;20054;-80
2021/09/13 03:52:22;;;;;;;40.47;29.52;;;14.20;99.90;;;;;;5019157;28;20022;-80
2021/09/13 03:54:47;;;;;;;34.35;27.52;;;14.10;99.90;;;;;;5019636;28;20085;-80
2021/09/13 03:57:13;;;;;;;41.58;29.02;;;13.90;99.90;;;;;;5020144;28;20029;-80
2021/09/13 03:59:39;;;;;;;45.47;31.35;;;14.00;99.90;;;;;;5019609;28;20026;-81
2021/09/13 04:02:05;;;;;;;44.55;33.65;;;14.10;99.90;;;;;;5019329;28;20026;-80
2021/09/13 04:04:31;;;;;;;40.03;30.75;;;14.20;99.90;;;;;;5020010;28;20030;-80
2021/09/13 04:09:50;;;;;;;39.40;27.90;;;13.90;99.90;;;;;;5020763;28;20034;-80
2021/09/13 04:12:16;;;;;;;32.35;25.25;;;13.70;99.90;;;;;;5019758;28;20029;-80
2021/09/13 04:14:41;;;;;;;37.03;29.13;;;13.70;99.90;;;;;;5019312;28;20036;-80
2021/09/13 04:17:07;;;;;;;39.83;29.83;;;13.70;99.90;;;;;;5019384;28;20026;-80
2021/09/13 04:19:33;;;;;;;40.03;28.30;;;13.70;99.90;;;;;;5021188;28;20071;-80
2021/09/13 04:21:58;;;;;;;37.97;27.13;;;13.80;99.90;;;;;;5020165;28;20116;-80
2021/09/13 04:24:24;;;;;;;32.10;25.33;;;13.70;99.90;;;;;;5021891;28;20030;-80
2021/09/13 04:26:50;;;;;;;34.15;25.30;;;13.60;99.90;;;;;;5021766;28;20029;-80
2021/09/13 04:29:15;;;;;;;30.08;24.95;;;13.50;99.90;;;;;;5021607;28;20049;-80
2021/09/13 04:31:41;;;;;;;31.58;24.95;;;13.50;99.90;;;;;;5021086;28;20434;-80
2021/09/13 04:34:07;;;;;;;27.50;23.95;;;13.60;99.90;;;;;;5020620;28;20030;-80
2021/09/13 04:36:33;;;;;;;33.20;24.60;;;13.70;99.90;;;;;;5020286;28;20056;-81
2021/09/13 04:38:59;;;;;;;37.25;26.00;;;13.50;99.90;;;;;;5020175;28;20503;-80
2021/09/13 04:41:24;;;;;;;35.30;26.23;;;13.50;99.90;;;;;;5020725;28;20037;-81
2021/09/13 04:43:50;;;;;;;30.65;24.02;;;13.50;99.90;;;;;;5018855;28;20049;-80
2021/09/13 04:46:15;;;;;;;29.02;22.80;;;13.40;99.90;;;;;;5020635;28;20029;-80
2021/09/13 04:48:41;;;;;;;29.42;24.80;;;13.30;99.90;;;;;;5021338;28;20018;-80
2021/09/13 04:51:07;;;;;;;31.90;23.88;;;13.30;99.90;;;;;;5020725;28;20025;-80
2021/09/13 04:53:33;;;;;;;34.47;25.13;;;13.30;99.90;;;;;;5019981;28;20048;-80
2021/09/13 04:55:58;;;;;;;36.42;26.60;;;13.40;99.90;;;;;;5020727;28;20610;-80
2021/09/13 04:58:24;;;;;;;33.80;25.05;;;13.50;99.90;;;;;;5020325;28;20034;-80
2021/09/13 05:00:49;;;;;;;29.63;22.80;;;13.40;99.90;;;;;;5021220;28;20110;-80
2021/09/13 05:03:15;;;;;;;31.88;24.58;;;13.30;99.90;;;;;;5019588;28;20066;-80
2021/09/13 05:05:42;;;;;;;31.90;24.70;;;13.30;99.90;;;;;;5020175;28;20053;-80
2021/09/13 05:08:07;;;;;;;32.85;25.15;;;13.40;99.90;;;;;;5020197;28;20099;-80
2021/09/13 05:10:33;;;;;;;37.33;26.80;;;13.50;99.90;;;;;;5020928;28;20022;-80
2021/09/13 05:12:59;;;;;;;32.42;24.90;;;13.60;99.90;;;;;;5020829;28;20052;-80
2021/09/13 05:15:24;;;;;;;37.88;27.77;;;13.50;99.90;;;;;;5020964;28;20068;-80
2021/09/13 05:17:50;;;;;;;36.42;27.42;;;13.50;99.90;;;;;;5020004;28;20022;-80
2021/09/13 05:20:16;;;;;;;34.30;26.10;;;13.50;99.90;;;;;;5019444;28;20022;-80
2021/09/13 05:22:42;;;;;;;35.65;24.80;;;13.40;99.90;;;;;;5019618;28;20030;-80
2021/09/13 05:25:09;;;;;;;38.63;24.30;;;13.40;99.90;;;;;;5019049;28;20026;-80
2021/09/13 05:27:35;;;;;;;33.20;23.83;;;13.30;99.90;;;;;;5020251;28;20056;-80
2021/09/13 05:30:00;;;;;;;33.40;24.35;;;13.20;99.90;;;;;;5019613;28;20065;-80
2021/09/13 05:32:26;;;;;;;31.92;24.63;;;13.30;99.90;;;;;;5021006;28;20010;-80
2021/09/13 05:34:52;;;;;;;34.83;25.30;;;13.40;99.90;;;;;;5018207;28;20049;-80
2021/09/13 05:37:18;;;;;;;34.60;23.98;;;13.50;99.90;;;;;;5033653;28;20064;-81
2021/09/13 05:39:43;;;;;;;37.25;25.15;;;13.70;99.90;;;;;;5039497;28;20025;-80
2021/09/13 05:42:10;;;;;;;32.97;24.65;;;13.80;99.90;;;;;;5027176;28;20048;-80
2021/09/13 05:44:36;;;;;;;34.92;24.63;;;13.80;99.90;;;;;;5019726;28;20100;-80
2021/09/13 05:47:02;;;;;;;31.75;22.98;;;13.80;99.90;;;;;;5014142;28;20034;-80
2021/09/13 05:49:31;;;;;;;32.60;23.15;;;13.80;99.90;;;;;;5004069;28;20030;-80
2021/09/13 05:51:56;;;;;;;26.08;21.80;;;13.80;99.90;;;;;;5003979;28;20031;-80
2021/09/13 05:54:22;;;;;;;28.65;20.65;;;13.80;99.90;;;;;;5018331;28;20057;-79
2021/09/13 05:56:55;;;;;;;28.88;22.33;;;13.70;99.90;;;;;;5008389;28;20108;-79
2021/09/13 05:59:21;;;;;;;30.48;22.05;;;13.70;99.90;;;;;;5030606;28;20034;-82
2021/09/13 06:01:52;;;;;;;32.95;22.33;;;13.90;99.90;;;;;;5012259;28;20021;-80
2021/09/13 06:04:18;;;;;;;32.25;21.40;;;14.10;99.90;;;;;;5022336;28;20022;-85
2021/09/13 06:06:55;;;;;;;34.05;22.73;;;14.10;99.90;;;;;;5020310;28;20050;-82
2021/09/13 06:09:21;;;;;;;29.83;21.92;;;14.30;99.90;;;;;;5016948;28;20075;-80
2021/09/13 06:11:50;;;;;;;33.03;23.00;;;14.50;99.90;;;;;;5011374;28;20014;-82
2021/09/13 06:14:16;;;;;;;35.22;24.23;;;14.50;99.90;;;;;;5011501;28;20033;-82
2021/09/13 06:16:43;;;;;;;32.22;23.00;;;14.70;99.90;;;;;;5017095;28;20053;-88
2021/09/13 06:19:11;;;;;;;34.47;23.25;;;14.70;99.90;;;;;;5001455;28;20030;-88
2021/09/13 06:21:41;;;;;;;32.42;23.15;;;14.80;99.90;;;;;;5019974;28;20040;-87
2021/09/13 06:24:12;;;;;;;31.02;21.48;;;14.80;99.90;;;;;;5013301;28;20021;-89
2021/09/13 06:26:38;;;;;;;29.85;21.75;;;14.80;99.90;;;;;;5017905;28;20021;-87
2021/09/13 06:29:06;;;;;;;34.70;21.45;;;14.80;99.90;;;;;;5012456;28;20057;-87
2021/09/13 06:31:32;;;;;;;27.63;21.30;;;15.00;99.90;;;;;;4998759;28;20038;-84
2021/09/13 06:33:58;;;;;;;31.50;21.58;;;15.20;99.90;;;;;;4973997;28;20049;-87
2021/09/13 06:36:27;;;;;;;26.65;20.17;;;15.20;99.90;;;;;;5010905;28;20567;-82
2021/09/13 06:38:53;;;;;;;24.73;18.30;;;15.30;99.90;;;;;;5014809;28;20033;-80
2021/09/13 06:41:18;;;;;;;24.92;17.55;;;15.30;99.90;;;;;;4998429;28;20495;-80
2021/09/13 06:43:46;;;;;;;21.60;16.30;;;15.40;99.90;;;;;;5004986;28;20026;-80
2021/09/13 06:46:22;;;;;;;21.38;16.55;;;15.60;99.90;;;;;;5010593;28;20038;-80
2021/09/13 06:48:50;;;;;;;24.58;16.98;;;15.70;99.90;;;;;;5018899;28;20526;-80
2021/09/13 06:51:17;;;;;;;21.08;16.25;;;16.00;99.90;;;;;;4990711;28;20037;-81
2021/09/13 06:53:43;;;;;;;21.48;16.23;;;16.10;99.90;;;;;;5003463;28;20102;-80
2021/09/13 06:56:11;;;;;;;19.35;15.48;;;16.20;99.90;;;;;;5018093;28;20510;-80
2021/09/13 06:58:37;;;;;;;21.70;16.58;;;16.20;99.90;;;;;;5017735;28;20402;-80
2021/09/13 07:01:03;;;;;;;17.85;14.57;;;16.30;99.90;;;;;;5015759;28;20076;-80
2021/09/13 07:03:29;;;;;;;19.38;14.32;;;16.20;99.90;;;;;;5006421;28;20026;-80
2021/09/13 07:05:57;;;;;;;20.98;14.48;;;16.30;99.90;;;;;;5002497;28;20037;-81
2021/09/13 07:08:23;;;;;;;21.27;14.38;;;16.60;99.90;;;;;;5002404;28;20033;-80
2021/09/13 07:10:49;;;;;;;17.65;13.90;;;17.00;99.90;;;;;;5007065;28;20029;-80
2021/09/13 07:13:15;;;;;;;19.55;13.45;;;17.00;99.90;;;;;;5008877;28;20095;-80
2021/09/13 07:15:40;;;;;;;20.55;13.50;;;16.90;99.90;;;;;;5014098;28;20137;-80
2021/09/13 07:18:06;;;;;;;21.23;12.93;;;17.00;99.90;;;;;;5016166;28;20030;-80
2021/09/13 07:20:32;;;;;;;19.60;12.65;;;17.20;99.90;;;;;;4988175;28;20029;-79
2021/09/13 07:22:58;;;;;;;19.77;12.18;;;17.20;99.90;;;;;;5002238;28;20101;-80
2021/09/13 07:25:23;;;;;;;16.85;12.63;;;17.40;99.90;;;;;;5008705;28;20149;-80
2021/09/13 07:27:49;;;;;;;14.75;11.60;;;17.60;99.90;;;;;;5009648;28;20484;-80
2021/09/13 07:30:15;;;;;;;16.75;12.57;;;17.80;99.90;;;;;;5018625;28;20030;-80
2021/09/13 07:32:41;;;;;;;19.48;13.52;;;18.10;99.90;;;;;;5013045;28;20056;-80
2021/09/13 07:35:09;;;;;;;18.65;12.73;;;18.50;99.90;;;;;;5015646;28;20033;-80
2021/09/13 07:37:36;;;;;;;20.65;12.25;;;18.30;99.90;;;;;;5001744;28;20076;-80
2021/09/13 07:40:04;;;;;;;16.13;12.48;;;18.30;99.90;;;;;;5007191;28;20034;-80
2021/09/13 07:42:30;;;;;;;17.92;12.20;;;18.30;99.90;;;;;;5010305;28;20069;-80
2021/09/13 07:44:57;;;;;;;15.02;11.93;;;18.40;99.90;;;;;;5007286;28;20037;-80
2021/09/13 07:47:23;;;;;;;19.17;11.85;;;18.60;99.90;;;;;;5012545;28;20023;-80
2021/09/13 07:49:48;;;;;;;16.42;10.93;;;18.80;99.90;;;;;;5010121;28;20030;-80
2021/09/13 07:52:14;;;;;;;12.48;10.63;;;19.30;99.90;;;;;;5009073;28;20045;-80
2021/09/13 07:54:40;;;;;;;14.43;9.48;;;19.70;99.90;;;;;;5011059;28;20490;-80
2021/09/13 07:57:06;;;;;;;15.48;9.93;;;19.60;99.90;;;;;;5016333;28;20030;-81
2021/09/13 07:59:31;;;;;;;12.68;9.30;;;19.90;99.90;;;;;;5000821;28;20071;-79
2021/09/13 08:01:57;;;;;;;12.55;9.25;;;20.10;99.90;;;;;;5012981;28;20060;-80
2021/09/13 08:04:23;;;;;;;14.70;8.50;;;20.40;99.90;;;;;;5007062;28;20030;-80
2021/09/13 08:06:48;;;;;;;11.25;7.70;;;21.00;99.90;;;;;;5015207;28;20030;-80
2021/09/13 08:09:14;;;;;;;12.32;7.68;;;21.60;99.90;;;;;;5005465;28;20034;-79
2021/09/13 08:11:43;;;;;;;15.02;7.10;;;21.50;99.90;;;;;;5006890;28;20046;-84
2021/09/13 08:14:08;;;;;;;7.38;6.28;;;21.40;99.90;;;;;;5015658;28;20422;-81
2021/09/13 08:16:34;;;;;;;8.07;5.78;;;21.80;99.90;;;;;;5017932;28;20021;-83
2021/09/13 08:19:00;;;;;;;8.88;4.80;;;22.50;99.90;;;;;;5018892;28;20030;-82
2021/09/13 08:21:27;;;;;;;4.15;3.70;;;23.00;99.90;;;;;;4999303;28;20022;-82
2021/09/13 08:23:54;;;;;;;6.80;3.85;;;23.50;99.90;;;;;;5009076;28;20037;-80
2021/09/13 08:26:20;;;;;;;6.68;4.05;;;24.20;99.90;;;;;;4995874;28;20085;-85
2021/09/13 08:28:46;;;;;;;7.82;4.50;;;24.40;99.90;;;;;;5016395;28;20468;-82
2021/09/13 08:31:12;;;;;;;7.45;4.55;;;24.00;99.90;;;;;;4996083;28;20045;-79
2021/09/13 08:33:37;;;;;;;9.82;4.30;;;23.40;99.90;;;;;;4990818;28;20148;-78
2021/09/13 08:36:05;;;;;;;6.28;3.88;;;23.50;99.90;;;;;;5007055;28;20037;-79
2021/09/13 08:38:31;;;;;;;6.55;3.35;;;23.70;99.90;;;;;;4999638;28;20182;-78
2021/09/13 08:40:57;;;;;;;5.72;3.40;;;24.40;99.90;;;;;;4999710;28;20494;-77
2021/09/13 08:43:23;;;;;;;6.10;3.35;;;24.50;99.90;;;;;;5003413;28;20029;-78
2021/09/13 08:45:59;;;;;;;6.15;3.45;;;25.40;99.90;;;;;;5007797;28;20146;-78
2021/09/13 08:48:34;;;;;;;6.70;3.50;;;25.60;99.90;;;;;;5006759;28;20517;-79
2021/09/13 08:53:36;;;;;;;7.72;3.45;;;25.30;99.90;;;;;;4998541;28;20056;-78
2021/09/13 08:56:04;;;;;;;7.38;3.58;;;25.60;99.90;;;;;;5011393;28;20030;-77
2021/09/13 08:58:34;;;;;;;6.53;3.97;;;26.10;99.90;;;;;;5014668;28;20390;-78
2021/09/13 09:01:01;;;;;;;5.38;3.78;;;26.00;99.90;;;;;;5010606;28;20026;-77
2021/09/13 09:03:28;;;;;;;8.60;4.38;;;25.80;99.90;;;;;;5007037;28;20029;-77
2021/09/13 09:05:54;;;;;;;6.45;3.70;;;26.20;99.90;;;;;;5014719;28;20032;-78
2021/09/13 09:08:28;;;;;;;5.47;4.05;;;25.60;99.90;;;;;;5012681;28;20129;-78
2021/09/13 09:10:56;;;;;;;7.78;4.68;;;25.70;99.90;;;;;;5009052;28;20052;-78
2021/09/13 09:13:23;;;;;;;7.30;4.10;;;25.80;99.90;;;;;;5002340;28;20031;-79
2021/09/13 09:16:00;;;;;;;6.55;4.53;;;26.40;99.90;;;;;;5016934;28;20046;-78
2021/09/13 09:18:44;;;;;;;5.75;4.32;;;26.80;99.90;;;;;;5010709;28;20079;-77
2021/09/13 09:21:31;;;;;;;6.55;4.43;;;26.60;99.50;;;;;;4998445;28;20856;-77
2021/09/13 09:24:02;;;;;;;6.07;3.97;;;26.40;99.90;;;;;;4996560;28;20032;-78
2021/09/13 09:26:29;;;;;;;9.18;4.43;;;27.00;98.70;;;;;;5007434;28;20025;-78
2021/09/13 09:28:56;;;;;;;6.90;4.07;;;26.90;98.10;;;;;;5010312;28;20511;-78
2021/09/13 09:31:45;;;;;;;5.75;4.20;;;27.10;97.90;;;;;;5009874;28;20027;-78
2021/09/13 09:34:21;;;;;;;7.70;4.45;;;25.70;99.60;;;;;;5007627;28;20030;-79
2021/09/13 09:37:09;;;;;;;7.30;3.70;;;25.80;99.90;;;;;;5014188;28;20041;-79
2021/09/13 09:39:39;;;;;;;8.13;3.78;;;25.90;98.70;;;;;;5011919;28;20025;-80
2021/09/13 09:42:09;;;;;;;6.40;3.90;;;25.80;99.00;;;;;;5020925;28;20026;-79
2021/09/13 09:44:35;;;;;;;9.35;4.10;;;25.80;99.60;;;;;;5023334;28;20455;-79
2021/09/13 09:47:11;;;;;;;8.25;3.92;;;26.20;99.20;;;;;;5007636;28;20037;-78
2021/09/13 09:49:46;;;;;;;5.22;3.70;;;25.80;99.50;;;;;;5006744;28;20456;-85
2021/09/13 09:52:26;;;;;;;3.70;2.85;;;25.80;99.30;;;;;;5010141;28;20408;-80
2021/09/13 09:55:14;;;;;;;6.40;2.75;;;25.70;99.00;;;;;;5012408;28;20121;-80
2021/09/13 09:57:42;;;;;;;5.80;2.80;;;26.00;99.40;;;;;;5013819;28;20066;-81
2021/09/13 10:00:21;;;;;;;7.05;3.30;;;26.30;96.40;;;;;;5002873;28;20109;-78
2021/09/13 10:02:47;;;;;;;5.18;3.00;;;26.50;97.20;;;;;;5000841;28;20081;-79
2021/09/13 10:05:13;;;;;;;7.50;3.20;;;26.40;97.00;;;;;;5013672;28;20029;-79
2021/09/13 10:07:40;;;;;;;4.50;2.38;;;26.40;96.60;;;;;;5009465;28;20384;-79
2021/09/13 10:10:08;;;;;;;3.97;2.15;;;26.00;97.60;;;;;;5004720;28;20482;-79
2021/09/13 10:12:35;;;;;;;5.50;2.22;;;25.70;97.00;;;;;;4997547;28;20034;-78
2021/09/13 10:15:03;;;;;;;2.80;2.35;;;26.00;96.40;;;;;;5018419;28;20037;-78
2021/09/13 10:17:30;;;;;;;4.28;2.58;;;25.60;97.10;;;;;;5011138;28;20022;-78
2021/09/13 10:19:55;;;;;;;4.65;2.60;;;25.30;97.40;;;;;;5007341;28;20056;-78
2021/09/13 10:22:21;;;;;;;4.22;2.10;;;25.60;97.60;;;;;;5008221;28;20471;-84
2021/09/13 10:24:48;;;;;;;3.60;2.10;;;25.90;96.60;;;;;;5008412;28;20026;-80
2021/09/13 10:27:19;;;;;;;4.90;2.22;;;26.10;95.50;;;;;;4994790;28;20038;-83
2021/09/13 10:29:45;;;;;;;10.88;3.00;;;25.90;95.40;;;;;;5014871;28;20030;-82
2021/09/13 10:32:12;;;;;;;6.95;2.08;;;25.80;95.80;;;;;;5012533;28;20060;-85
2021/09/13 10:34:50;;;;;;;5.35;2.70;;;25.70;95.80;;;;;;5011949;28;20030;-83
2021/09/13 10:37:19;;;;;;;9.32;2.58;;;25.70;96.00;;;;;;5013213;28;20049;-82
2021/09/13 10:39:57;;;;;;;7.18;2.25;;;25.80;97.30;;;;;;5008573;28;20167;-84
2021/09/13 10:42:51;;;;;;;4.53;1.83;;;26.10;96.90;;;;;;5005040;28;20030;-82
2021/09/13 10:45:29;;;;;;;4.75;1.60;;;26.70;94.20;;;;;;5023005;28;20026;-85
2021/09/13 10:47:56;;;;;;;4.00;1.42;;;26.70;94.60;;;;;;5005772;28;20120;-83
2021/09/13 10:50:40;;;;;;;4.15;1.50;;;26.90;94.90;;;;;;5005036;28;20131;-83
2021/09/13 10:53:18;;;;;;;5.68;1.80;;;27.00;94.50;;;;;;5019242;28;20057;-80
2021/09/13 10:55:51;;;;;;;5.90;2.78;;;26.70;94.90;;;;;;5005892;28;20035;-79
2021/09/13 10:58:45;;;;;;;3.33;1.83;;;26.70;94.20;;;;;;5013834;28;20019;-80
2021/09/13 11:01:17;;;;;;;9.18;2.00;;;26.70;95.30;;;;;;5014669;28;20102;-79
2021/09/13 11:03:47;;;;;;;5.78;2.80;;;26.10;94.50;;;;;;5013745;28;20032;-81
2021/09/13 11:06:13;;;;;;;8.00;2.15;;;26.00;94.80;;;;;;5013949;28;20014;-83
2021/09/13 11:08:41;;;;;;;6.05;2.70;;;25.80;95.90;;;;;;5010129;28;20030;-86
2021/09/13 11:11:30;;;;;;;5.40;2.50;;;25.80;95.40;;;;;;5011071;28;20022;-81
2021/09/13 11:14:03;;;;;;;4.75;1.98;;;25.30;95.90;;;;;;5008601;28;20042;-85
2021/09/13 11:16:31;;;;;;;4.30;2.05;;;25.30;96.40;;;;;;5010003;28;20360;-79
2021/09/13 11:18:57;;;;;;;7.63;2.40;;;25.40;96.40;;;;;;5001487;28;20033;-78
2021/09/13 11:21:26;;;;;;;6.72;2.35;;;25.50;96.00;;;;;;5005308;28;20089;-79
2021/09/13 11:23:57;;;;;;;3.83;2.65;;;26.00;95.90;;;;;;5026027;28;20018;-79
2021/09/13 11:26:39;;;;;;;4.72;2.17;;;25.90;95.20;;;;;;5012100;28;20034;-79
2021/09/13 11:29:05;;;;;;;4.25;2.13;;;25.80;95.60;;;;;;5003295;28;20025;-79
2021/09/13 11:31:46;;;;;;;4.47;2.20;;;25.80;95.80;;;;;;5010247;28;20112;-79
2021/09/13 11:34:15;;;;;;;3.72;2.67;;;26.20;94.60;;;;;;5014931;28;20482;-79
2021/09/13 11:37:06;;;;;;;6.80;2.70;;;26.10;94.60;;;;;;5006504;28;20068;-78
2021/09/13 11:39:50;;;;;;;5.18;2.20;;;25.90;94.70;;;;;;5006091;28;20025;-80
2021/09/13 11:42:19;;;;;;;6.07;2.70;;;25.70;95.60;;;;;;5008436;28;20025;-79
2021/09/13 11:44:45;;;;;;;3.67;2.83;;;25.70;96.30;;;;;;5000467;28;20668;-78
2021/09/13 11:47:22;;;;;;;6.18;2.80;;;25.80;95.80;;;;;;5012648;28;20065;-78
2021/09/13 11:49:51;;;;;;;7.38;2.80;;;25.50;96.20;;;;;;4994050;28;20085;-78
2021/09/13 11:52:30;;;;;;;5.50;2.60;;;26.00;95.40;;;;;;5009940;28;20606;-78
2021/09/13 11:55:02;;;;;;;6.07;3.30;;;25.90;95.40;;;;;;5003414;28;20038;-79
2021/09/13 11:57:30;;;;;;;8.52;3.90;;;25.80;95.30;;;;;;5015031;28;20018;-83
2021/09/13 12:00:12;;;;;;;7.93;3.65;;;25.30;95.60;;;;;;5007680;28;20041;-85
2021/09/13 12:02:42;;;;;;;;;;;25.00;96.30;;;;;;5013614;28;20321;-86
2021/09/13 12:05:17;;;;;;;5.60;3.13;;;24.80;96.60;;;;;;5011721;28;19948;-84
2021/09/13 12:07:45;;;;;;;5.63;2.92;;;24.50;97.70;;;;;;5002725;28;20029;-86
2021/09/13 12:10:14;;;;;;;9.10;3.55;;;24.90;97.60;;;;;;5010166;28;20084;-81
2021/09/13 12:12:46;;;;;;;4.57;2.83;;;25.40;96.00;;;;;;5009177;28;20108;-86
2021/09/13 12:15:13;;;;;;;8.05;3.05;;;25.70;95.90;;;;;;5015181;28;20030;-82
2021/09/13 12:17:41;;;;;;;7.43;3.35;;;25.70;96.20;;;;;;5003787;28;20029;-78
2021/09/13 12:20:21;;;;;;;6.90;2.70;;;25.70;95.30;;;;;;5000978;28;20041;-79
2021/09/13 12:22:58;;;;;;;7.72;3.22;;;25.80;95.50;;;;;;5010836;28;20017;-79
2021/09/13 12:25:25;;;;;;;7.28;4.13;;;26.00;95.30;;;;;;4998820;28;20025;-78
2021/09/13 12:27:53;;;;;;;7.47;3.80;;;26.10;94.40;;;;;;5007929;28;20056;-79
2021/09/13 12:30:22;;;;;;;7.25;3.65;;;25.70;95.00;;;;;;5003043;28;20030;-79
2021/09/13 12:32:55;;;;;;;4.80;3.13;;;25.70;96.00;;;;;;5002364;28;20033;-79
2021/09/13 12:35:39;;;;;;;5.28;3.30;;;26.40;95.10;;;;;;4984948;28;20044;-79
2021/09/13 12:38:13;;;;;;;5.95;3.42;;;26.90;93.70;;;;;;5002592;28;20065;-80
2021/09/13 12:40:52;;;;;;;6.32;2.67;;;27.30;93.50;;;;;;5010272;28;20022;-78
2021/09/13 12:43:32;;;;;;;6.22;3.17;;;28.10;93.20;;;;;;5013562;28;20050;-79